Flight Track Log - Related Links

Times and Time Zones

All times are in EDT time to prevent confusion due to time zone crossing. See the AAY834 flight status page for this flight to view local times or setup timezone preferences in your user account.


Time Position Orientation Groundspeed Altitude Reporting Facility
EDT Latitude Longitude Course Direction KTS MPH feet Rate Location/Type
Fri 02:56:07 PM 27.9333 -82.7000 30° Northeast 170 196 900  Level Tampa TRACON
Fri 02:57:07 PM 27.9833 -82.6667 12° North 200 230 3,500 2,105 Climbing Tampa TRACON
Fri 02:58:58 PM 28.0975 -82.6383 17° North 240 276 6,900 1,930 Climbing Jacksonville Center
Fri 02:59:58 PM 28.1725 -82.6125 16° North 262 302 9,000 2,100 Climbing Jacksonville Center
Fri 03:00:58 PM 28.2561 -82.5861 14° North 283 326 11,100 1,750 Climbing Jacksonville Center
Fri 03:01:58 PM 28.3497 -82.5600 15° North 313 360 12,500 1,750 Climbing Jacksonville Center
Fri 03:02:58 PM 28.4583 -82.5267 15° North 360 414 14,600 2,200 Climbing Jacksonville Center
Fri 03:03:58 PM 28.5689 -82.4931 353° North 392 451 16,900 2,100 Climbing Jacksonville Center
Fri 03:04:58 PM 28.6856 -82.5092 350° North 415 478 18,800 1,950 Climbing Jacksonville Center
Fri 03:05:58 PM 28.7881 -82.5300 349° North 408 470 20,800 1,900 Climbing Jacksonville Center
Fri 03:06:58 PM 28.9050 -82.5558 349° North 414 476 22,600 1,900 Climbing Jacksonville Center
Fri 03:07:58 PM 29.0239 -82.5814 348° North 419 482 24,600 1,850 Climbing Jacksonville Center
Fri 03:08:58 PM 29.1408 -82.6097 350° North 424 488 26,300 1,750 Climbing Jacksonville Center
Fri 03:09:58 PM 29.2558 -82.6331 350° North 424 488 28,100 1,650 Climbing Jacksonville Center
Fri 03:10:58 PM 29.3706 -82.6567 349° North 424 488 29,600 1,550 Climbing Jacksonville Center
Fri 03:11:58 PM 29.4814 -82.6803 349° North 413 475 31,200 1,200 Climbing Jacksonville Center
Fri 03:12:58 PM 29.5919 -82.7039 349° North 408 470 32,000 800 Climbing Jacksonville Center
Fri 03:13:58 PM 29.7047 -82.7300 350° North 408 470 32,800 500 Climbing Jacksonville Center
Fri 03:14:58 PM 29.8197 -82.7536 349° North 413 475 33,000 100 Climbing Jacksonville Center
Fri 03:15:58 PM 29.9303 -82.7775 350° North 408 470 33,000 -50 Level Jacksonville Center
Fri 03:16:58 PM 30.0619 -82.8039 357° North 424 488 32,900  Descending Jacksonville Center
Fri 03:17:58 PM 30.1747 -82.8108 22° Northeast 425 489 33,000  Climbing Jacksonville Center
Fri 03:18:58 PM 30.2853 -82.7603 22° Northeast 407 468 32,900  Descending Jacksonville Center
Fri 03:19:58 PM 30.3958 -82.7072 23° Northeast 412 474 33,000  Climbing Jacksonville Center
Fri 03:20:58 PM 30.5044 -82.6539 21° North 422 486 32,900 -50 Descending Jacksonville Center
Fri 03:21:58 PM 30.6022 -82.6103 22° Northeast 422 486 32,900 50 Level Jacksonville Center
Fri 03:22:58 PM 30.7067 -82.5617 20° North 422 486 33,000 50 Climbing Jacksonville Center
Fri 03:23:58 PM 30.8214 -82.5128 22° Northeast 416 479 33,000  Level Jacksonville Center
Fri 03:24:58 PM 30.9297 -82.4614 22° Northeast 416 479 33,000 -50 Level Jacksonville Center
Fri 03:25:58 PM 31.0381 -82.4100 22° Northeast 416 479 32,900 -50 Descending Jacksonville Center
Fri 03:26:58 PM 31.1569 -82.3536 21° North 416 479 32,900 50 Level Jacksonville Center
Fri 03:27:58 PM 31.2675 -82.3044 23° Northeast 416 479 33,000  Climbing Jacksonville Center
Fri 03:28:58 PM 31.3778 -82.2500 21° North 416 479 32,900 -50 Descending Jacksonville Center
Fri 03:29:58 PM 31.4881 -82.2006 22° Northeast 411 473 32,900 50 Level Jacksonville Center
Fri 03:30:58 PM 31.5986 -82.1486 22° Northeast 418 481 33,000 50 Climbing Jacksonville Center
Fri 03:31:58 PM 31.7067 -82.0964 21° North 413 475 33,000  Level Jacksonville Center
Fri 03:32:58 PM 31.8047 -82.0517 23° Northeast 413 475 33,000  Level Jacksonville Center
Fri 03:33:58 PM 31.9275 -81.9917 22° Northeast 413 475 33,000  Level Jacksonville Center
Fri 03:34:58 PM 32.0356 -81.9392 22° Northeast 421 484 33,000  Level Jacksonville Center
Fri 03:35:58 PM 32.1356 -81.8917 21° North 421 484 33,000  Level Jacksonville Center
Fri 03:36:58 PM 32.2581 -81.8361 22° Northeast 427 491 33,000  Level Jacksonville Center
Fri 03:37:58 PM 32.3600 -81.7883 22° Northeast 432 497 33,000  Level Jacksonville Center
Fri 03:38:58 PM 32.4806 -81.7303 22° Northeast 432 497 33,000  Level Jacksonville Center
Fri 03:39:58 PM 32.5908 -81.6769 22° Northeast 434 499 33,000  Level Jacksonville Center
Fri 03:40:58 PM 32.7050 -81.6211 21° North 429 494 33,000  Level Jacksonville Center
Fri 03:41:58 PM 32.8172 -81.5700 27° Northeast 429 494 33,000 -50 Level Jacksonville Center
Fri 03:42:58 PM 32.9231 -81.5067 32° Northeast 429 494 32,900 -50 Descending Jacksonville Center
Fri 03:43:58 PM 33.0264 -81.4308 33° Northeast 429 494 32,900  Level Jacksonville Center
Fri 03:44:58 PM 33.1300 -81.3497 33° Northeast 429 494 32,900  Level Jacksonville Center
Fri 03:45:58 PM 33.2333 -81.2708 33° Northeast 434 499 32,900  Level Jacksonville Center
Fri 03:46:58 PM 33.3367 -81.1919 32° Northeast 434 499 32,900  Level Jacksonville Center
Fri 03:47:58 PM 33.4419 -81.1128 33° Northeast 434 499 32,900  Level Jacksonville Center
Fri 03:48:58 PM 33.5431 -81.0336 33° Northeast 434 499 32,900 50 Level Jacksonville Center
Fri 03:49:58 PM 33.6461 -80.9539 33° Northeast 434 499 33,000  Climbing Jacksonville Center
Fri 03:50:58 PM 33.7492 -80.8719 31° Northeast 434 499 32,900  Descending Jacksonville Center
Fri 03:51:58 PM 33.8544 -80.7944 33° Northeast 434 499 33,000 -50 Climbing Jacksonville Center
Fri 03:52:58 PM 33.9617 -80.7117 33° Northeast 434 499 32,800 -700 Descending Jacksonville Center
Fri 03:53:58 PM 34.0622 -80.6314 33° Northeast 434 499 31,600 -1,200 Descending Jacksonville Center
Fri 03:54:58 PM 34.1672 -80.5486 33° Northeast 439 505 30,400 -1,650 Descending Jacksonville Center
Fri 03:55:58 PM 34.2742 -80.4653 33° Northeast 439 505 28,300 -2,300 Descending Jacksonville Center
Fri 03:56:58 PM 34.3789 -80.3817 33° Northeast 446 513 25,800 -2,012 Descending Jacksonville Center
Fri 03:58:45 PM 34.5550 -80.2419 32° Northeast 427 491 22,700 -1,653 Descending Washington Center
Fri 03:59:45 PM 34.6517 -80.1692 35° Northeast 420 483 21,200 -843 Descending Washington Center
Fri 04:00:46 PM 34.7422 -80.0933 36° Northeast 405 466 21,000 -99 Descending Washington Center
Fri 04:01:46 PM 34.8219 -80.0219 41° Northeast 391 450 21,000  Level Washington Center
Fri 04:02:47 PM 34.9047 -79.9328 42° Northeast 391 450 21,000  Level Washington Center
Fri 04:03:45 PM 34.9872 -79.8408 42° Northeast 391 450 21,000 -254 Level Washington Center
Fri 04:04:45 PM 35.0697 -79.7514 42° Northeast 391 450 20,500 -1,289 Descending Washington Center
Fri 04:05:46 PM 35.1608 -79.6519 28° Northeast 391 450 18,400 -1,967 Descending Washington Center
Fri 04:06:47 PM 35.2547 -79.5906 339° North 386 444 16,500 -1,869 Descending Washington Center
Fri 04:14:15 PM 35.9811 -79.9316 357° North  Level FlightAware Approximate
Fri 04:15:15 PM 36.0857 -79.9381 351° North  Level FlightAware Approximate
Fri 04:16:15 PM 36.1918 -79.9586 167° South  Level Estimated
Fri 04:17:15 PM 36.1000 -79.9333 282° West  Level FlightAware Approximate
Fri 04:18:15 PM 36.1230 -80.0689 282° West  Level Estimated

Login

Don't have an account? Register now (free) for customized features, flight alerts, and more!